Terminal Aerodrome Forecast
Issued by NWS Charleston, WV

Current Version | Previous Version | Text Only | Print | Product List | Glossary Off
Versions: 1 2 3 4 5 6 7 8 9 10 11 12 13 14 15 16 17 18 19 20 21 22 23 24 25

000
FTUS41 KRLX 181100
TAFCRW
TAF
KCRW 181140Z 1812/1912 00000KT 2SM BR OVC004
     FM181400 00000KT 5SM BR BKN020
     FM181600 00000KT P6SM BKN040
     FM181700 VRB03KT P6SM SCT040
     FM190100 00000KT P6SM BKN250
     FM190800 00000KT 3SM BR SCT001=

USA.gov is the U.S. government's official web portal to all federal, state and local government web resources and services.